createdAt,value
2019-05-20T00:01:52.076Z,71.23
2019-05-20T00:04:25.274Z,71.47
2019-05-20T00:06:58.517Z,71.53
2019-05-20T00:09:31.721Z,71.79
2019-05-20T00:12:04.961Z,71.86
2019-05-20T00:14:38.177Z,71.84
2019-05-20T00:17:11.420Z,72.00
2019-05-20T00:19:45.037Z,72.11
2019-05-20T00:22:19.270Z,72.20
2019-05-20T00:24:52.745Z,72.38
2019-05-20T00:27:25.989Z,72.66
2019-05-20T00:29:59.207Z,72.80
2019-05-20T00:32:41.381Z,73.12
2019-05-20T00:35:07.659Z,72.99
2019-05-20T00:37:41.904Z,72.85
2019-05-20T00:40:15.134Z,73.04
2019-05-20T00:42:48.605Z,73.29
2019-05-20T00:45:21.913Z,73.50
2019-05-20T00:47:55.595Z,73.67
2019-05-20T00:50:28.820Z,73.91
2019-05-20T00:53:02.139Z,74.03
2019-05-20T00:55:35.542Z,73.71
2019-05-20T00:58:08.773Z,73.72
2019-05-20T01:00:42.397Z,73.77
2019-05-20T01:03:15.747Z,73.85
2019-05-20T01:05:48.897Z,73.49
2019-05-20T01:08:22.217Z,73.90
2019-05-20T01:10:55.355Z,73.72
2019-05-20T01:13:28.888Z,73.78
2019-05-20T01:16:02.110Z,73.85
2019-05-20T01:18:35.419Z,74.43
2019-05-20T01:21:08.806Z,74.24
2019-05-20T01:23:41.965Z,74.33
2019-05-20T01:26:15.172Z,74.39
2019-05-20T01:28:49.735Z,74.51
2019-05-20T01:31:22.950Z,74.33
2019-05-20T01:33:57.214Z,74.55
2019-05-20T01:36:30.408Z,74.53
2019-05-20T01:39:04.634Z,74.65
2019-05-20T01:41:37.841Z,75.10
2019-05-20T01:44:11.218Z,75.43
2019-05-20T01:46:44.396Z,75.88
2019-05-20T01:49:17.631Z,76.06
2019-05-20T01:51:50.762Z,75.93
2019-05-20T01:54:24.097Z,75.95
2019-05-20T01:56:57.258Z,76.41
2019-05-20T01:59:30.677Z,76.43
2019-05-20T02:02:03.832Z,76.72
2019-05-20T02:04:37.058Z,76.85
2019-05-20T02:07:10.264Z,76.72
2019-05-20T02:09:43.503Z,76.96
2019-05-20T02:12:16.727Z,76.85
2019-05-20T02:14:55.112Z,77.00
2019-05-20T02:17:28.384Z,77.14
2019-05-20T02:20:01.546Z,77.55
2019-05-20T02:22:34.748Z,77.48
2019-05-20T02:25:08.042Z,77.57
2019-05-20T02:27:42.255Z,77.54
2019-05-20T02:30:16.348Z,77.59
2019-05-20T02:32:49.566Z,77.70
2019-05-20T02:35:22.793Z,77.45
2019-05-20T02:37:56.186Z,77.35
2019-05-20T02:40:29.406Z,77.57
2019-05-20T02:43:02.813Z,77.63
2019-05-20T02:45:36.038Z,77.49
2019-05-20T02:48:09.312Z,77.72
2019-05-20T02:50:42.557Z,77.60
2019-05-20T02:53:15.686Z,77.66
2019-05-20T02:55:49.986Z,77.53
2019-05-20T02:58:23.211Z,77.24
2019-05-20T03:00:56.426Z,77.30
2019-05-20T03:03:29.707Z,77.32
2019-05-20T03:06:02.954Z,77.37
2019-05-20T03:08:36.241Z,77.50
2019-05-20T03:11:09.489Z,77.48
2019-05-20T03:13:42.703Z,77.61
2019-05-20T03:16:15.977Z,77.59
2019-05-20T03:18:49.192Z,77.68
2019-05-20T03:21:22.353Z,77.82
2019-05-20T03:23:55.501Z,77.91
2019-05-20T03:26:28.770Z,77.81
2019-05-20T03:29:02.051Z,77.80
2019-05-20T03:31:35.356Z,78.13
2019-05-20T03:34:08.792Z,78.07
2019-05-20T03:36:43.021Z,77.91
2019-05-20T03:39:16.267Z,78.05
2019-05-20T03:41:49.499Z,78.10
2019-05-20T03:44:22.711Z,78.10
2019-05-20T03:46:55.959Z,77.91
2019-05-20T03:49:29.179Z,77.90
2019-05-20T03:52:02.402Z,77.69
2019-05-20T03:54:35.614Z,77.77
2019-05-20T03:57:08.845Z,77.68
2019-05-20T03:59:42.046Z,77.70
2019-05-20T04:02:15.279Z,77.63
2019-05-20T04:05:01.350Z,77.48
2019-05-20T04:07:23.190Z,77.33
2019-05-20T04:09:56.244Z,77.40
2019-05-20T04:12:29.474Z,77.23
2019-05-20T04:15:02.689Z,77.41
2019-05-20T04:17:36.964Z,77.73
2019-05-20T04:20:10.551Z,77.63
2019-05-20T04:22:44.182Z,77.43
2019-05-20T04:25:17.393Z,77.41
2019-05-20T04:27:50.692Z,77.60
2019-05-20T04:30:23.835Z,77.28
2019-05-20T04:32:57.036Z,77.14
2019-05-20T04:35:31.719Z,77.40
2019-05-20T04:38:05.141Z,77.27
2019-05-20T04:40:38.637Z,77.50
2019-05-20T04:43:12.001Z,77.49
2019-05-20T04:45:45.201Z,77.27
2019-05-20T04:48:18.358Z,77.00
2019-05-20T04:50:51.416Z,76.83
2019-05-20T04:53:24.633Z,76.46
2019-05-20T04:55:57.941Z,76.20
2019-05-20T04:58:31.174Z,75.82
2019-05-20T05:01:04.503Z,75.37
2019-05-20T05:03:37.725Z,74.90
2019-05-20T05:06:11.165Z,74.17
2019-05-20T05:08:44.417Z,73.83
2019-05-20T05:11:23.778Z,73.38
2019-05-20T05:13:56.949Z,73.26
2019-05-20T05:16:54.092Z,73.14
2019-05-20T05:19:27.370Z,72.64
2019-05-20T05:22:00.508Z,72.42
2019-05-20T05:24:33.658Z,72.00
2019-05-20T05:27:07.082Z,71.95
2019-05-20T05:29:40.254Z,71.28
2019-05-20T05:32:13.475Z,70.99
2019-05-20T05:34:46.768Z,70.05
2019-05-20T05:37:19.996Z,70.44
2019-05-20T05:39:53.269Z,70.50
2019-05-20T05:42:26.416Z,69.89
2019-05-20T05:44:59.764Z,70.20
2019-05-20T05:47:32.931Z,69.96
2019-05-20T05:50:06.382Z,70.02
2019-05-20T05:52:39.687Z,69.81
2019-05-20T05:55:13.829Z,70.16
2019-05-20T05:57:47.035Z,69.69
2019-05-20T06:00:20.364Z,69.15
2019-05-20T06:02:54.969Z,68.77
2019-05-20T06:05:31.449Z,68.53
2019-05-20T06:08:03.104Z,68.16
2019-05-20T06:10:36.372Z,68.13
2019-05-20T06:13:09.772Z,68.04
2019-05-20T06:15:43.004Z,67.58
2019-05-20T06:18:16.117Z,67.84
2019-05-20T06:20:49.289Z,67.34
2019-05-20T06:23:22.516Z,67.26
2019-05-20T06:25:55.744Z,67.34
2019-05-20T06:28:28.953Z,67.56
2019-05-20T06:31:03.276Z,67.96
2019-05-20T06:33:36.575Z,67.29
2019-05-20T06:36:09.806Z,67.32
2019-05-20T06:38:46.911Z,67.18
2019-05-20T06:41:19.993Z,66.62
2019-05-20T06:43:53.216Z,66.28
2019-05-20T06:46:26.544Z,65.83
2019-05-20T06:48:59.849Z,65.96
2019-05-20T06:51:33.097Z,65.61
2019-05-20T06:54:07.394Z,65.50
2019-05-20T06:56:40.805Z,64.92
2019-05-20T06:59:14.109Z,64.32
2019-05-20T07:01:47.534Z,64.32
2019-05-20T07:04:20.768Z,63.98
2019-05-20T07:06:54.029Z,63.83
2019-05-20T07:09:27.299Z,63.25
2019-05-20T07:12:00.607Z,63.96
2019-05-20T07:14:33.900Z,62.99
2019-05-20T07:17:07.235Z,62.09
2019-05-20T07:19:40.455Z,62.31
2019-05-20T07:22:13.625Z,63.37
2019-05-20T07:24:46.869Z,63.67
2019-05-20T07:27:20.215Z,63.65
2019-05-20T07:29:53.520Z,64.29
2019-05-20T07:32:26.755Z,64.51
2019-05-20T07:34:59.987Z,64.85
2019-05-20T07:37:37.596Z,64.78
2019-05-20T07:40:11.587Z,65.28
2019-05-20T07:42:46.212Z,65.31
2019-05-20T07:45:19.649Z,65.55
2019-05-20T07:47:52.987Z,65.05
2019-05-20T07:50:26.939Z,65.15
2019-05-20T07:53:00.764Z,65.49
2019-05-20T07:55:39.953Z,66.10
2019-05-20T07:58:14.748Z,66.03
2019-05-20T08:00:48.081Z,66.39
2019-05-20T08:03:22.226Z,66.32
2019-05-20T08:05:55.435Z,66.93
2019-05-20T08:08:28.673Z,66.82
2019-05-20T08:11:01.897Z,67.23
2019-05-20T08:13:35.126Z,67.52
2019-05-20T08:16:09.440Z,67.65
2019-05-20T08:18:42.736Z,67.94
2019-05-20T08:21:15.982Z,68.36
2019-05-20T08:23:50.248Z,67.93
2019-05-20T08:26:24.683Z,68.23
2019-05-20T08:28:57.985Z,67.55
2019-05-20T08:31:32.543Z,67.33
2019-05-20T08:34:05.878Z,66.57
2019-05-20T08:36:39.126Z,66.70
2019-05-20T08:39:12.452Z,67.21
2019-05-20T08:41:45.646Z,67.68
2019-05-20T08:44:19.859Z,67.78
2019-05-20T08:46:53.086Z,68.23
2019-05-20T08:49:26.309Z,68.42
2019-05-20T08:51:59.731Z,68.22
2019-05-20T08:54:33.040Z,68.32
2019-05-20T08:57:06.309Z,68.52
2019-05-20T08:59:39.491Z,68.95
2019-05-20T09:02:12.662Z,68.91
2019-05-20T09:04:45.981Z,68.94
2019-05-20T09:07:19.223Z,68.64
2019-05-20T09:09:52.472Z,69.23
2019-05-20T09:12:25.828Z,69.08
2019-05-20T09:14:59.094Z,70.09
2019-05-20T09:17:32.309Z,70.31
2019-05-20T09:20:05.731Z,70.36
2019-05-20T09:22:39.684Z,70.16
2019-05-20T09:25:13.292Z,70.15
2019-05-20T09:27:46.650Z,70.53
2019-05-20T09:30:20.036Z,70.37
2019-05-20T09:32:53.550Z,70.52
2019-05-20T09:35:27.109Z,70.97
2019-05-20T09:38:00.445Z,70.81
2019-05-20T09:40:43.537Z,70.79
2019-05-20T09:43:16.784Z,71.03
2019-05-20T09:46:05.752Z,71.29
2019-05-20T09:48:25.431Z,71.18
2019-05-20T09:50:58.963Z,71.37
2019-05-20T09:53:32.501Z,71.47
2019-05-20T09:56:05.821Z,71.84
2019-05-20T09:58:39.049Z,72.54
2019-05-20T10:01:16.489Z,72.43
2019-05-20T10:03:49.713Z,72.47
2019-05-20T10:06:22.919Z,72.57
2019-05-20T10:08:56.258Z,72.58
2019-05-20T10:11:30.080Z,72.50
2019-05-20T10:14:04.525Z,72.52
2019-05-20T10:16:37.771Z,72.82
2019-05-20T10:19:11.082Z,72.72
2019-05-20T10:21:44.406Z,72.73
2019-05-20T10:24:17.999Z,73.22
2019-05-20T10:26:51.317Z,73.47
2019-05-20T10:29:24.589Z,73.22
2019-05-20T10:31:57.786Z,73.52
2019-05-20T10:34:31.083Z,73.70
2019-05-20T10:37:04.338Z,73.67
2019-05-20T10:39:40.901Z,73.86
2019-05-20T10:42:17.044Z,73.98
2019-05-20T10:44:50.810Z,74.14
2019-05-20T10:47:24.130Z,75.08
2019-05-20T10:49:57.475Z,74.79
2019-05-20T10:52:30.941Z,74.98
2019-05-20T10:55:04.310Z,74.46
2019-05-20T10:57:37.560Z,74.00
2019-05-20T11:00:11.661Z,73.55
2019-05-20T11:02:46.356Z,71.99
2019-05-20T11:05:20.570Z,72.00
2019-05-20T11:07:53.837Z,72.03
2019-05-20T11:10:27.080Z,71.96
2019-05-20T11:13:02.348Z,71.89
2019-05-20T11:15:35.687Z,72.38
2019-05-20T11:18:09.795Z,71.55
2019-05-20T11:20:43.180Z,70.98
2019-05-20T11:23:16.481Z,70.44
2019-05-20T11:25:49.787Z,69.79
2019-05-20T11:28:23.062Z,70.10
2019-05-20T11:30:57.944Z,68.96
2019-05-20T11:33:31.146Z,68.08
2019-05-20T11:36:07.173Z,69.33
2019-05-20T11:38:40.721Z,68.04
2019-05-20T11:41:14.545Z,66.85
2019-05-20T11:43:48.093Z,66.76
2019-05-20T11:46:21.459Z,65.11
2019-05-20T11:48:55.060Z,63.64
2019-05-20T11:51:28.368Z,64.08
2019-05-20T11:54:02.197Z,64.05
2019-05-20T11:56:35.434Z,63.72
2019-05-20T11:59:08.751Z,63.07
2019-05-20T12:01:42.219Z,62.72
2019-05-20T12:04:15.489Z,62.01
2019-05-20T12:06:48.710Z,61.05
2019-05-20T12:09:22.040Z,59.09
2019-05-20T12:11:55.565Z,61.08
2019-05-20T12:14:29.012Z,60.09
2019-05-20T12:17:02.385Z,59.28
2019-05-20T12:19:35.630Z,59.75
2019-05-20T12:22:08.983Z,59.42
2019-05-20T12:24:44.323Z,59.45
2019-05-20T12:27:17.634Z,60.42
2019-05-20T12:29:50.972Z,60.61
2019-05-20T12:32:24.141Z,60.44
2019-05-20T12:34:57.357Z,60.68
2019-05-20T12:37:31.661Z,60.53
2019-05-20T12:40:07.458Z,60.45
2019-05-20T12:42:40.023Z,60.19
2019-05-20T12:45:13.872Z,59.80
2019-05-20T12:47:47.745Z,60.38
2019-05-20T12:50:21.216Z,58.91
2019-05-20T12:52:54.628Z,59.07
2019-05-20T12:55:27.874Z,59.51
2019-05-20T12:58:01.111Z,59.80
2019-05-20T13:00:34.943Z,58.07
2019-05-20T13:03:08.192Z,58.06
2019-05-20T13:05:41.513Z,58.86
2019-05-20T13:08:14.754Z,57.05
2019-05-20T13:10:47.985Z,55.55
2019-05-20T13:13:21.145Z,55.14
2019-05-20T13:15:54.334Z,55.25
2019-05-20T13:18:27.565Z,54.74
2019-05-20T13:21:00.818Z,54.51
2019-05-20T13:23:35.045Z,53.10
2019-05-20T13:26:08.289Z,55.85
2019-05-20T13:28:41.601Z,56.02
2019-05-20T13:31:15.025Z,55.82
2019-05-20T13:33:48.296Z,55.30
2019-05-20T13:36:21.641Z,55.68
2019-05-20T13:38:55.326Z,55.75
2019-05-20T13:41:29.257Z,55.27
2019-05-20T13:44:02.585Z,53.87
2019-05-20T13:46:35.959Z,52.99
2019-05-20T13:49:09.229Z,51.87
2019-05-20T13:51:43.559Z,51.31
2019-05-20T13:54:16.815Z,51.72
2019-05-20T13:56:50.185Z,52.26
2019-05-20T13:59:23.502Z,52.90
2019-05-20T14:01:56.773Z,52.96
2019-05-20T14:04:30.095Z,53.36
2019-05-20T14:07:03.443Z,53.63
2019-05-20T14:09:37.775Z,54.01
2019-05-20T14:12:11.622Z,53.66
2019-05-20T14:14:44.946Z,50.52
2019-05-20T14:17:18.311Z,50.87
2019-05-20T14:19:51.551Z,51.94
2019-05-20T14:22:43.305Z,52.43
2019-05-20T14:25:17.855Z,50.69
2019-05-20T14:27:51.627Z,50.40
2019-05-20T14:30:24.974Z,51.35
2019-05-20T14:32:58.254Z,50.89
2019-05-20T14:35:31.575Z,51.87
2019-05-20T14:38:05.039Z,52.47
2019-05-20T14:40:38.351Z,52.74
2019-05-20T14:43:13.389Z,54.12
2019-05-20T14:45:46.757Z,52.90
2019-05-20T14:48:20.130Z,53.47
2019-05-20T14:50:53.360Z,53.71
2019-05-20T14:53:26.591Z,53.88
2019-05-20T14:55:59.872Z,53.73
2019-05-20T14:58:33.199Z,53.91
2019-05-20T15:01:06.437Z,51.66
2019-05-20T15:03:39.787Z,52.32
2019-05-20T15:06:13.183Z,52.07
2019-05-20T15:08:46.467Z,51.47
2019-05-20T15:11:35.659Z,51.33
2019-05-20T15:14:00.133Z,51.33
2019-05-20T15:16:32.202Z,50.51
2019-05-20T15:19:05.510Z,50.58
2019-05-20T15:21:39.934Z,50.65
2019-05-20T15:24:13.145Z,50.81
2019-05-20T15:26:46.399Z,51.27
2019-05-20T15:29:28.081Z,51.21
2019-05-20T15:31:54.452Z,50.71
2019-05-20T15:34:27.654Z,51.28
2019-05-20T15:37:01.188Z,51.66
2019-05-20T15:39:35.534Z,51.37
2019-05-20T15:42:10.797Z,51.56
2019-05-20T15:44:44.078Z,50.40
2019-05-20T15:47:18.957Z,50.83
2019-05-20T15:49:52.587Z,51.46
2019-05-20T15:52:27.121Z,51.48
2019-05-20T15:55:00.331Z,51.95
2019-05-20T15:57:33.625Z,51.58
2019-05-20T16:00:07.884Z,51.63
2019-05-20T16:02:41.169Z,51.08
2019-05-20T16:05:14.676Z,50.23
2019-05-20T16:07:48.003Z,50.12
2019-05-20T16:10:21.235Z,49.25
2019-05-20T16:12:54.460Z,49.22
2019-05-20T16:15:27.709Z,49.06
2019-05-20T16:18:01.210Z,47.92
2019-05-20T16:23:06.942Z,48.21
2019-05-20T16:25:41.358Z,49.15
2019-05-20T16:28:14.548Z,48.74
2019-05-20T16:30:47.746Z,48.28
2019-05-20T16:33:20.945Z,48.42
2019-05-20T16:35:54.181Z,48.73
2019-05-20T16:38:27.366Z,49.27
2019-05-20T16:41:00.613Z,48.47
2019-05-20T16:43:33.902Z,49.20
2019-05-20T16:46:07.213Z,49.25
2019-05-20T16:48:40.353Z,49.22
2019-05-20T16:51:13.571Z,49.29
2019-05-20T16:53:46.767Z,48.86
2019-05-20T16:56:20.940Z,49.16
2019-05-20T16:58:54.133Z,49.54
2019-05-20T17:01:27.633Z,49.95
2019-05-20T17:04:00.821Z,49.44
2019-05-20T17:06:34.041Z,49.56
2019-05-20T17:09:07.831Z,50.07
2019-05-20T17:11:41.071Z,49.88
2019-05-20T17:14:14.260Z,50.05
2019-05-20T17:16:47.409Z,50.09
2019-05-20T17:19:20.604Z,48.93
2019-05-20T17:21:53.813Z,48.20
2019-05-20T17:24:27.067Z,48.75
2019-05-20T17:27:00.211Z,48.57
2019-05-20T17:29:33.514Z,48.58
2019-05-20T17:32:06.598Z,48.06
2019-05-20T17:34:39.855Z,48.29
2019-05-20T17:37:12.970Z,48.08
2019-05-20T17:39:46.142Z,49.22
2019-05-20T17:42:19.321Z,48.81
2019-05-20T17:44:52.774Z,49.20
2019-05-20T17:47:25.973Z,49.65
2019-05-20T17:49:59.251Z,49.99
2019-05-20T17:52:32.368Z,49.70
2019-05-20T17:55:05.693Z,50.33
2019-05-20T17:57:38.909Z,50.31
2019-05-20T18:00:17.200Z,50.17
2019-05-20T18:02:51.116Z,50.48
2019-05-20T18:05:24.272Z,50.83
2019-05-20T18:07:57.538Z,50.55
2019-05-20T18:10:30.663Z,50.92
2019-05-20T18:13:03.766Z,50.91
2019-05-20T18:15:37.038Z,51.02
2019-05-20T18:18:10.089Z,51.45
2019-05-20T18:20:43.302Z,51.62
2019-05-20T18:23:16.516Z,52.07
2019-05-20T18:25:49.637Z,52.65
2019-05-20T18:28:22.806Z,52.68
2019-05-20T18:30:57.002Z,52.91
2019-05-20T18:33:30.418Z,53.62
2019-05-20T18:36:03.559Z,53.64
2019-05-20T18:38:36.742Z,53.96
2019-05-20T18:41:09.950Z,54.10
2019-05-20T18:43:43.169Z,54.31
2019-05-20T18:46:16.390Z,54.68
2019-05-20T18:48:49.561Z,54.67
2019-05-20T18:51:22.783Z,54.75
2019-05-20T18:53:55.965Z,55.03
2019-05-20T18:56:29.053Z,54.05
2019-05-20T18:59:03.361Z,54.49
2019-05-20T19:01:50.665Z,54.59
2019-05-20T19:04:11.294Z,55.14
2019-05-20T19:06:44.456Z,55.46
2019-05-20T19:09:17.641Z,56.00
2019-05-20T19:11:50.854Z,55.95
2019-05-20T19:14:24.032Z,56.34
2019-05-20T19:16:57.078Z,57.01
2019-05-20T19:19:30.368Z,57.33
2019-05-20T19:22:03.489Z,57.74
2019-05-20T19:24:36.696Z,58.43
2019-05-20T19:27:10.069Z,58.65
2019-05-20T19:29:43.366Z,58.97
2019-05-20T19:32:17.264Z,58.69
2019-05-20T19:34:50.387Z,58.95
2019-05-20T19:37:24.935Z,59.99
2019-05-20T19:39:58.154Z,60.13
2019-05-20T19:42:31.384Z,60.16
2019-05-20T19:45:04.594Z,60.19
2019-05-20T19:47:38.617Z,59.88
2019-05-20T19:50:12.669Z,59.87
2019-05-20T19:52:45.871Z,60.02
2019-05-20T19:55:19.402Z,60.22
2019-05-20T19:57:52.738Z,60.60
2019-05-20T20:00:26.037Z,60.70
2019-05-20T20:02:59.272Z,60.87
2019-05-20T20:05:32.688Z,60.75
2019-05-20T20:08:06.016Z,61.06
2019-05-20T20:10:39.180Z,61.26
2019-05-20T20:13:12.424Z,61.50
2019-05-20T20:15:46.938Z,61.89
2019-05-20T20:18:20.524Z,62.17
2019-05-20T20:20:53.777Z,62.26
2019-05-20T20:23:27.009Z,61.96
2019-05-20T20:26:00.349Z,61.96
2019-05-20T20:28:34.174Z,61.87
2019-05-20T20:31:11.044Z,61.84
2019-05-20T20:33:44.868Z,61.49
2019-05-20T20:36:21.316Z,61.53
2019-05-20T20:38:54.356Z,61.56
2019-05-20T20:41:27.680Z,61.55
2019-05-20T20:44:00.909Z,61.59
2019-05-20T20:46:34.045Z,61.59
2019-05-20T20:49:07.202Z,62.19
2019-05-20T20:51:40.511Z,62.16
2019-05-20T20:54:13.822Z,61.96
2019-05-20T20:56:47.033Z,61.83
2019-05-20T20:59:20.254Z,62.26
2019-05-20T21:01:58.798Z,61.96
2019-05-20T21:04:29.241Z,61.93
2019-05-20T21:07:02.452Z,61.80
2019-05-20T21:09:35.897Z,61.99
2019-05-20T21:12:09.087Z,62.12
2019-05-20T21:14:42.252Z,61.89
2019-05-20T21:17:15.490Z,61.94
2019-05-20T21:19:48.702Z,62.00
2019-05-20T21:22:21.929Z,62.19
2019-05-20T21:24:56.112Z,62.74
2019-05-20T21:27:29.323Z,63.30
2019-05-20T21:30:02.453Z,63.61
2019-05-20T21:32:35.596Z,63.72
2019-05-20T21:35:09.045Z,63.73
2019-05-20T21:37:42.274Z,64.25
2019-05-20T21:40:15.390Z,64.69
2019-05-20T21:42:48.544Z,64.70
2019-05-20T21:45:22.074Z,64.52
2019-05-20T21:47:55.295Z,64.89
2019-05-20T21:50:28.505Z,64.96
2019-05-20T21:53:01.755Z,65.19
2019-05-20T21:55:34.968Z,65.11
2019-05-20T21:58:08.200Z,65.11
2019-05-20T22:00:46.432Z,65.06
2019-05-20T22:03:24.494Z,65.21
2019-05-20T22:05:54.523Z,65.47
2019-05-20T22:08:28.158Z,66.13
2019-05-20T22:11:01.317Z,66.16
2019-05-20T22:13:34.714Z,66.10
2019-05-20T22:16:07.965Z,66.25
2019-05-20T22:18:41.401Z,66.28
2019-05-20T22:21:16.259Z,66.07
2019-05-20T22:23:56.886Z,66.23
2019-05-20T22:26:30.141Z,66.33
2019-05-20T22:29:03.367Z,66.46
2019-05-20T22:31:36.489Z,66.41
2019-05-20T22:34:09.816Z,66.73
2019-05-20T22:36:43.036Z,66.69
2019-05-20T22:39:16.336Z,67.10
2019-05-20T22:41:49.656Z,67.13
2019-05-20T22:44:22.842Z,67.68
2019-05-20T22:46:56.054Z,68.04
2019-05-20T22:49:29.248Z,67.91
2019-05-20T22:52:02.389Z,68.03
2019-05-20T22:54:36.563Z,68.06
2019-05-20T22:57:09.691Z,68.15
2019-05-20T22:59:44.004Z,67.99
2019-05-20T23:02:17.208Z,67.81
2019-05-20T23:04:50.300Z,67.84
2019-05-20T23:07:23.444Z,67.87
2019-05-20T23:09:56.756Z,67.71
2019-05-20T23:12:29.863Z,67.65
2019-05-20T23:15:03.238Z,68.00
2019-05-20T23:17:36.572Z,68.01
2019-05-20T23:20:10.031Z,68.02
2019-05-20T23:22:43.576Z,68.07
2019-05-20T23:25:16.884Z,67.90
2019-05-20T23:27:50.026Z,67.63
2019-05-20T23:30:23.203Z,67.83
2019-05-20T23:32:56.493Z,67.83
2019-05-20T23:35:29.647Z,67.91
2019-05-20T23:38:02.780Z,67.94
2019-05-20T23:40:37.011Z,67.99
2019-05-20T23:43:10.170Z,68.05
2019-05-20T23:45:43.345Z,67.90
2019-05-20T23:48:16.485Z,68.11
2019-05-20T23:50:50.125Z,68.02
2019-05-20T23:53:23.445Z,67.96
2019-05-20T23:55:56.640Z,68.79
2019-05-20T23:58:29.936Z,68.67
